Portada
METAR-TAF:

METAR-TAF

Aeropuertos :

McKinley Park, Alaska, Estados Unidos

latitud: 63-44N, longitud: 148-55W, altitud: 524 m

Observación

El informe se hizo hace 28 minutos, a las 04:56 UTC
Viento 6 kt del norte
Temperatura 19°C
Humedad 43%
Presión 1020 hPa
Visibilidad: 16.1 km
Escasas nubes a una altura de 10000 ft

METAR: PAIN 160456Z AUTO 01006KT 10SM FEW100 19/06 A3011 RMK AO2 SLP201 T01890061

Hora: 21:24 (05:24 UTC)


TAF: falta

Observaciones y pronósticos meteorológicos de más de 4000 aeropuertos (mensajes METAR y TAF).

Los puntos amarillos y rojos representan las estaciones disponibles.

Ponga el ratón en el punto deseado para ver el nombre de la estación.

Haga clic para ver las observaciones y los pronósticos meteorológicos.

Para cambiar el mapa : haga clic en los botones verdes con una cruz de color negro para hacer un zoom, en el botón verde con un guión para alejar o en las flechas verdes para mapas adyacentes.


METAR-TAF: